createdAt,value
2018-02-13T00:05:10.890Z,80.30
2018-02-13T00:07:37.506Z,80.20
2018-02-13T00:10:04.860Z,79.40
2018-02-13T00:12:31.078Z,79.60
2018-02-13T00:14:58.062Z,79.10
2018-02-13T00:17:25.500Z,79.20
2018-02-13T00:19:54.301Z,79.20
2018-02-13T00:22:21.408Z,79.00
2018-02-13T00:24:48.753Z,78.60
2018-02-13T00:27:17.959Z,78.80
2018-02-13T00:29:45.382Z,78.60
2018-02-13T00:32:12.191Z,78.60
2018-02-13T00:41:12.552Z,79.00
2018-02-13T00:43:39.348Z,78.30
2018-02-13T00:46:05.797Z,78.40
2018-02-13T00:48:33.742Z,77.90
2018-02-13T00:51:00.474Z,77.90
2018-02-13T00:53:27.304Z,78.00
2018-02-13T00:55:54.367Z,78.50
2018-02-13T00:58:22.042Z,78.40
2018-02-13T01:00:49.997Z,78.20
2018-02-13T01:03:16.735Z,78.40
2018-02-13T01:05:44.871Z,79.00
2018-02-13T01:08:12.743Z,79.20
2018-02-13T01:10:38.963Z,79.70
2018-02-13T01:13:05.870Z,80.60
2018-02-13T01:15:32.914Z,81.00
2018-02-13T01:18:00.079Z,80.90
2018-02-13T01:20:30.223Z,80.90
2018-02-13T01:22:56.447Z,80.80
2018-02-13T01:25:23.764Z,81.90
2018-02-13T01:27:51.266Z,81.20
2018-02-13T01:30:17.816Z,81.20
2018-02-13T01:32:45.613Z,80.00
2018-02-13T01:35:12.575Z,80.00
2018-02-13T01:37:40.126Z,80.00
2018-02-13T01:40:07.684Z,79.80
2018-02-13T01:42:35.037Z,79.80
2018-02-13T01:45:02.136Z,79.60
2018-02-13T01:47:28.916Z,79.60
2018-02-13T01:49:55.186Z,79.90
2018-02-13T01:52:22.292Z,79.60
2018-02-13T01:54:48.659Z,79.50
2018-02-13T01:57:15.506Z,79.40
2018-02-13T01:59:43.139Z,79.80
2018-02-13T02:02:11.690Z,79.80
2018-02-13T02:04:38.420Z,79.80
2018-02-13T02:07:06.174Z,80.30
2018-02-13T02:09:33.090Z,80.30
2018-02-13T02:12:01.030Z,80.80
2018-02-13T02:14:28.022Z,80.70
2018-02-13T02:16:55.073Z,80.90
2018-02-13T02:19:22.174Z,80.70
2018-02-13T02:21:48.955Z,80.70
2018-02-13T02:24:15.181Z,80.50
2018-02-13T02:26:42.934Z,80.20
2018-02-13T02:29:09.136Z,80.20
2018-02-13T02:31:36.446Z,80.00
2018-02-13T02:34:03.475Z,80.20
2018-02-13T02:36:29.734Z,80.10
2018-02-13T02:38:55.925Z,79.90
2018-02-13T02:41:23.188Z,80.30
2018-02-13T02:43:49.629Z,80.40
2018-02-13T02:46:16.820Z,80.20
2018-02-13T02:48:43.224Z,79.80
2018-02-13T02:51:09.774Z,79.90
2018-02-13T02:53:35.996Z,79.70
2018-02-13T02:56:02.985Z,79.60
2018-02-13T02:58:29.883Z,79.80
2018-02-13T03:00:57.316Z,79.50
2018-02-13T03:03:24.011Z,79.50
2018-02-13T03:05:51.388Z,79.20
2018-02-13T03:08:18.976Z,79.20
2018-02-13T03:10:45.716Z,79.20
2018-02-13T03:13:11.946Z,79.30
2018-02-13T03:15:38.350Z,79.20
2018-02-13T03:18:04.571Z,79.60
2018-02-13T03:20:30.787Z,80.10
2018-02-13T03:22:58.874Z,80.10
2018-02-13T03:25:25.226Z,80.00
2018-02-13T03:27:51.946Z,80.20
2018-02-13T03:30:19.347Z,80.50
2018-02-13T03:32:45.554Z,80.40
2018-02-13T03:35:12.394Z,80.30
2018-02-13T03:37:40.714Z,79.70
2018-02-13T03:40:08.184Z,79.70
2018-02-13T03:42:35.678Z,79.70
2018-02-13T03:45:03.677Z,79.40
2018-02-13T03:47:30.919Z,79.40
2018-02-13T03:49:57.410Z,79.60
2018-02-13T03:52:24.494Z,79.70
2018-02-13T03:54:51.652Z,79.80
2018-02-13T03:57:18.822Z,80.00
2018-02-13T03:59:45.036Z,80.10
2018-02-13T04:02:12.245Z,79.60
2018-02-13T04:04:38.889Z,79.50
2018-02-13T04:07:05.576Z,79.70
2018-02-13T04:09:31.919Z,79.70
2018-02-13T04:11:59.279Z,79.60
2018-02-13T04:14:26.534Z,80.10
2018-02-13T04:16:52.915Z,79.40
2018-02-13T04:19:19.127Z,79.30
2018-02-13T04:21:45.562Z,79.20
2018-02-13T04:24:11.755Z,78.70
2018-02-13T04:26:39.453Z,79.20
2018-02-13T04:29:05.781Z,79.20
2018-02-13T04:31:32.971Z,79.70
2018-02-13T04:33:59.980Z,79.50
2018-02-13T04:36:27.299Z,79.50
2018-02-13T04:38:53.555Z,79.30
2018-02-13T04:41:20.866Z,79.20
2018-02-13T04:43:47.351Z,79.40
2018-02-13T04:46:13.850Z,79.50
2018-02-13T04:48:40.942Z,79.20
2018-02-13T04:51:07.809Z,79.10
2018-02-13T04:53:35.051Z,79.00
2018-02-13T04:56:01.280Z,79.80
2018-02-13T04:58:27.804Z,79.70
2018-02-13T05:00:54.881Z,79.70
2018-02-13T05:03:21.097Z,79.50
2018-02-13T05:05:47.312Z,79.60
2018-02-13T05:08:13.703Z,79.50
2018-02-13T05:10:39.942Z,79.90
2018-02-13T05:13:06.381Z,79.10
2018-02-13T05:15:33.202Z,78.90
2018-02-13T05:17:59.467Z,78.70
2018-02-13T05:20:25.734Z,78.30
2018-02-13T05:22:53.466Z,78.10
2018-02-13T05:25:20.245Z,78.00
2018-02-13T05:27:47.812Z,78.20
2018-02-13T05:30:14.090Z,78.30
2018-02-13T05:32:40.354Z,78.20
2018-02-13T05:35:07.368Z,78.10
2018-02-13T05:37:33.931Z,78.10
2018-02-13T05:40:00.279Z,78.00
2018-02-13T05:42:27.218Z,78.00
2018-02-13T05:44:54.810Z,77.90
2018-02-13T05:47:21.034Z,77.90
2018-02-13T05:49:47.581Z,77.80
2018-02-13T05:52:14.580Z,78.80
2018-02-13T05:54:41.575Z,78.10
2018-02-13T05:57:08.768Z,78.10
2018-02-13T05:59:35.654Z,78.10
2018-02-13T06:02:02.895Z,78.00
2018-02-13T06:04:30.619Z,78.60
2018-02-13T06:06:57.511Z,78.60
2018-02-13T06:09:24.862Z,78.10
2018-02-13T06:11:53.038Z,78.10
2018-02-13T06:14:19.402Z,78.10
2018-02-13T06:16:45.858Z,77.90
2018-02-13T06:19:12.081Z,77.60
2018-02-13T06:21:38.859Z,77.70
2018-02-13T06:24:05.670Z,78.00
2018-02-13T06:26:32.430Z,78.30
2018-02-13T06:29:00.235Z,78.50
2018-02-13T06:31:27.251Z,78.90
2018-02-13T06:33:54.205Z,79.10
2018-02-13T06:36:20.784Z,78.80
2018-02-13T06:38:47.860Z,78.60
2018-02-13T06:41:14.190Z,78.50
2018-02-13T06:43:41.746Z,79.70
2018-02-13T06:46:09.326Z,79.60
2018-02-13T06:48:36.934Z,79.50
2018-02-13T06:51:05.138Z,80.60
2018-02-13T06:53:32.354Z,80.60
2018-02-13T06:55:58.627Z,79.70
2018-02-13T06:58:26.428Z,79.80
2018-02-13T07:00:54.883Z,79.80
2018-02-13T07:03:21.201Z,80.00
2018-02-13T07:05:48.571Z,80.20
2018-02-13T07:08:14.884Z,80.30
2018-02-13T07:10:41.573Z,80.10
2018-02-13T07:13:07.895Z,79.20
2018-02-13T07:15:34.139Z,78.60
2018-02-13T07:18:00.848Z,78.60
2018-02-13T07:20:27.152Z,78.20
2018-02-13T07:22:53.402Z,78.90
2018-02-13T07:25:19.632Z,77.60
2018-02-13T07:27:46.438Z,77.00
2018-02-13T07:30:14.259Z,76.70
2018-02-13T07:32:40.553Z,76.80
2018-02-13T07:35:08.342Z,77.30
2018-02-13T07:37:34.586Z,76.80
2018-02-13T07:40:01.288Z,75.10
2018-02-13T07:42:27.602Z,77.40
2018-02-13T07:44:55.035Z,74.60
2018-02-13T07:47:22.701Z,74.40
2018-02-13T07:49:49.143Z,74.40
2018-02-13T08:02:01.176Z,75.40
2018-02-13T08:04:27.710Z,75.20
2018-02-13T08:06:54.009Z,75.90
2018-02-13T08:09:20.552Z,76.50
2018-02-13T08:11:48.303Z,77.00
2018-02-13T08:14:15.766Z,77.40
2018-02-13T08:16:44.248Z,77.40
2018-02-13T08:19:10.705Z,77.50
2018-02-13T08:21:36.970Z,77.60
2018-02-13T08:24:04.502Z,78.40
2018-02-13T08:26:31.972Z,78.40
2018-02-13T08:28:59.960Z,73.50
2018-02-13T08:31:27.030Z,74.80
2018-02-13T08:33:53.908Z,74.80
2018-02-13T08:36:20.476Z,72.50
2018-02-13T08:38:48.506Z,74.00
2018-02-13T08:41:15.550Z,75.30
2018-02-13T08:43:42.026Z,75.30
2018-02-13T08:46:08.875Z,75.60
2018-02-13T08:48:35.912Z,77.90
2018-02-13T08:51:02.935Z,78.40
2018-02-13T08:53:30.307Z,78.30
2018-02-13T08:55:56.905Z,78.90
2018-02-13T08:58:24.389Z,78.10
2018-02-13T09:00:50.769Z,78.30
2018-02-13T09:03:17.025Z,77.60
2018-02-13T09:05:44.311Z,77.40
2018-02-13T09:08:10.696Z,77.00
2018-02-13T09:10:36.970Z,77.10
2018-02-13T09:13:03.345Z,77.30
2018-02-13T09:15:29.614Z,77.40
2018-02-13T09:17:56.186Z,77.80
2018-02-13T09:20:22.931Z,77.80
2018-02-13T09:22:49.314Z,77.90
2018-02-13T09:25:15.614Z,77.40
2018-02-13T09:27:46.655Z,76.40
2018-02-13T09:30:12.987Z,75.70
2018-02-13T09:32:40.354Z,76.30
2018-02-13T09:35:07.255Z,75.80
2018-02-13T09:37:34.062Z,76.40
2018-02-13T09:40:01.456Z,77.70
2018-02-13T09:42:29.041Z,75.40
2018-02-13T09:44:56.561Z,75.50
2018-02-13T09:47:25.330Z,72.00
2018-02-13T09:49:51.919Z,72.00
2018-02-13T09:52:18.518Z,70.10
2018-02-13T09:54:46.636Z,71.50
2018-02-13T09:57:12.969Z,71.50
2018-02-13T09:59:39.836Z,71.70
2018-02-13T10:02:07.314Z,72.90
2018-02-13T10:04:34.176Z,71.30
2018-02-13T10:07:01.171Z,72.40
2018-02-13T10:09:27.417Z,72.30
2018-02-13T10:11:54.196Z,73.50
2018-02-13T10:14:20.726Z,69.50
2018-02-13T10:16:48.574Z,67.50
2018-02-13T10:19:15.710Z,69.70
2018-02-13T10:21:42.967Z,69.70
2018-02-13T10:24:09.292Z,70.80
2018-02-13T10:26:35.551Z,69.00
2018-02-13T10:29:02.496Z,69.40
2018-02-13T10:31:29.765Z,69.70
2018-02-13T10:33:57.701Z,69.60
2018-02-13T10:36:25.196Z,69.50
2018-02-13T10:38:51.453Z,66.80
2018-02-13T10:41:17.977Z,64.60
2018-02-13T10:43:45.221Z,65.80
2018-02-13T10:46:11.435Z,65.70
2018-02-13T10:48:37.673Z,65.40
2018-02-13T10:51:04.434Z,65.70
2018-02-13T10:53:31.264Z,65.60
2018-02-13T10:55:57.752Z,65.10
2018-02-13T10:58:24.739Z,67.50
2018-02-13T11:00:57.217Z,67.60
2018-02-13T11:03:24.374Z,64.40
2018-02-13T11:05:51.119Z,64.30
2018-02-13T11:08:17.865Z,63.70
2018-02-13T11:10:44.050Z,64.50
2018-02-13T11:13:11.011Z,63.40
2018-02-13T11:15:37.595Z,63.40
2018-02-13T11:18:05.506Z,60.60
2018-02-13T11:20:32.134Z,60.50
2018-02-13T11:22:59.083Z,60.60
2018-02-13T11:25:25.832Z,61.30
2018-02-13T11:27:52.208Z,59.80
2018-02-13T11:30:18.588Z,58.70
2018-02-13T11:32:44.815Z,58.60
2018-02-13T11:35:12.051Z,59.40
2018-02-13T11:37:38.995Z,58.80
2018-02-13T11:40:06.960Z,59.30
2018-02-13T11:42:34.152Z,58.00
2018-02-13T11:45:00.974Z,57.90
2018-02-13T11:47:27.761Z,58.00
2018-02-13T11:49:53.976Z,55.40
2018-02-13T11:52:21.895Z,55.20
2018-02-13T11:54:48.365Z,55.20
2018-02-13T11:57:14.603Z,56.20
2018-02-13T11:59:40.826Z,56.00
2018-02-13T12:02:07.598Z,54.70
2018-02-13T12:04:34.782Z,54.90
2018-02-13T12:07:01.773Z,53.60
2018-02-13T12:09:28.423Z,53.70
2018-02-13T13:30:51.143Z,55.10
2018-02-13T13:33:17.698Z,51.30
2018-02-13T13:35:44.121Z,51.10
2018-02-13T13:38:10.803Z,49.90
2018-02-13T13:40:37.078Z,50.60
2018-02-13T13:43:03.840Z,50.70
2018-02-13T13:45:35.000Z,52.10
2018-02-13T13:48:01.260Z,52.10
2018-02-13T13:50:28.665Z,52.30
2018-02-13T13:52:56.158Z,52.20
2018-02-13T13:55:22.816Z,51.00
2018-02-13T13:57:49.859Z,51.50
2018-02-13T14:00:16.923Z,50.50
2018-02-13T14:02:43.099Z,50.50
2018-02-13T14:05:09.473Z,51.30
2018-02-13T14:07:35.707Z,50.50
2018-02-13T14:10:01.992Z,50.40
2018-02-13T14:12:28.226Z,50.40
2018-02-13T14:14:54.447Z,50.30
2018-02-13T14:17:30.640Z,50.20
2018-02-13T14:19:58.427Z,51.80
2018-02-13T14:22:26.087Z,51.20
2018-02-13T14:24:52.530Z,51.20
2018-02-13T14:27:18.784Z,51.70
2018-02-13T14:29:45.524Z,51.30
2018-02-13T14:32:11.841Z,52.10
2018-02-13T14:34:38.611Z,49.80
2018-02-13T14:37:05.578Z,49.30
2018-02-13T14:39:32.769Z,48.50
2018-02-13T14:41:59.133Z,48.50
2018-02-13T14:44:25.661Z,49.10
2018-02-13T14:46:51.915Z,51.00
2018-02-13T14:49:19.302Z,51.10
2018-02-13T14:51:47.229Z,51.20
2018-02-13T14:54:14.966Z,51.20
2018-02-13T14:56:42.100Z,49.00
2018-02-13T14:59:08.507Z,49.00
2018-02-13T15:01:34.747Z,49.90
2018-02-13T15:04:01.004Z,48.30
2018-02-13T15:06:28.232Z,48.00
2018-02-13T15:08:54.887Z,49.20
2018-02-13T15:11:22.290Z,50.40
2018-02-13T15:13:50.181Z,50.40
2018-02-13T15:16:17.451Z,50.90
2018-02-13T15:18:43.705Z,50.30
2018-02-13T15:21:10.106Z,50.80
2018-02-13T15:23:36.367Z,49.40
2018-02-13T15:26:03.241Z,49.30
2018-02-13T15:28:31.096Z,50.50
2018-02-13T15:30:57.933Z,50.50
2018-02-13T15:33:25.839Z,51.50
2018-02-13T15:35:52.123Z,51.40
2018-02-13T15:38:18.452Z,51.20
2018-02-13T15:40:44.903Z,51.20
2018-02-13T15:43:11.866Z,51.20
2018-02-13T15:45:38.220Z,51.20
2018-02-13T15:48:05.022Z,51.30
2018-02-13T15:50:32.524Z,51.80
2018-02-13T15:52:59.655Z,51.80
2018-02-13T15:55:26.260Z,52.00
2018-02-13T15:57:53.673Z,52.00
2018-02-13T16:00:20.797Z,52.20
2018-02-13T16:02:47.208Z,52.10
2018-02-13T16:05:14.219Z,52.10
2018-02-13T16:07:40.455Z,52.00
2018-02-13T16:10:06.829Z,52.30
2018-02-13T16:12:33.329Z,52.40
2018-02-13T16:15:01.514Z,53.30
2018-02-13T16:17:28.527Z,53.00
2018-02-13T16:19:55.101Z,53.00
2018-02-13T16:22:22.464Z,53.30
2018-02-13T16:24:55.337Z,53.20
2018-02-13T16:27:22.726Z,55.20
2018-02-13T16:29:50.234Z,55.20
2018-02-13T16:32:24.405Z,56.10
2018-02-13T16:34:50.733Z,57.60
2018-02-13T16:37:17.152Z,57.80
2018-02-13T16:39:43.368Z,58.10
2018-02-13T16:42:09.601Z,58.70
2018-02-13T16:44:35.824Z,59.40
2018-02-13T16:47:02.128Z,59.70
2018-02-13T16:49:28.368Z,60.10
2018-02-13T16:51:55.590Z,62.10
2018-02-13T16:54:21.866Z,62.00
2018-02-13T16:56:48.176Z,62.50
2018-02-13T16:59:15.249Z,63.30
2018-02-13T17:01:42.083Z,63.30
2018-02-13T17:04:08.896Z,62.90
2018-02-13T17:06:35.418Z,60.50
2018-02-13T17:09:03.599Z,59.40
2018-02-13T17:11:31.197Z,59.40
2018-02-13T17:13:57.544Z,59.30
2018-02-13T17:16:23.811Z,60.60
2018-02-13T17:18:50.274Z,63.70
2018-02-13T17:21:17.192Z,63.60
2018-02-13T17:23:43.756Z,62.60
2018-02-13T17:26:11.156Z,61.20
2018-02-13T17:28:38.461Z,61.60
2018-02-13T17:31:05.246Z,62.70
2018-02-13T17:33:32.255Z,64.50
2018-02-13T17:35:58.532Z,64.40
2018-02-13T17:38:37.229Z,64.00
2018-02-13T17:41:03.775Z,65.00
2018-02-13T17:43:30.159Z,65.10
2018-02-13T17:45:57.213Z,63.50
2018-02-13T17:48:23.762Z,63.40
2018-02-13T17:50:50.152Z,63.20
2018-02-13T17:53:17.160Z,64.20
2018-02-13T17:55:43.866Z,63.90
2018-02-13T17:58:10.799Z,62.90
2018-02-13T18:00:37.195Z,63.40
2018-02-13T18:03:03.493Z,62.50
2018-02-13T18:05:30.244Z,61.80
2018-02-13T18:07:56.499Z,62.90
2018-02-13T18:10:24.838Z,63.30
2018-02-13T18:12:51.089Z,63.40
2018-02-13T18:15:18.066Z,64.20
2018-02-13T18:17:44.856Z,63.80
2018-02-13T18:20:11.372Z,64.40
2018-02-13T18:22:38.524Z,64.80
2018-02-13T18:25:04.833Z,64.80
2018-02-13T18:27:32.003Z,64.00
2018-02-13T18:29:58.612Z,64.00
2018-02-13T18:32:27.035Z,64.20
2018-02-13T18:34:54.309Z,65.00
2018-02-13T18:37:21.148Z,65.00
2018-02-13T18:39:48.084Z,64.50
2018-02-13T18:42:14.388Z,63.90
2018-02-13T18:44:41.588Z,64.50
2018-02-13T18:47:08.656Z,63.90
2018-02-13T18:49:35.642Z,62.90
2018-02-13T18:52:02.934Z,62.80
2018-02-13T18:54:30.185Z,62.60
2018-02-13T18:56:56.951Z,62.20
2018-02-13T18:59:24.354Z,63.60
2018-02-13T19:01:50.921Z,65.00
2018-02-13T19:04:17.835Z,65.80
2018-02-13T19:06:45.448Z,64.30
2018-02-13T19:09:13.843Z,65.20
2018-02-13T19:11:51.712Z,64.00
2018-02-13T19:57:54.919Z,63.80
2018-02-13T20:00:22.326Z,63.40
2018-02-13T21:02:30.161Z,60.40
2018-02-13T21:07:49.142Z,59.30
2018-02-13T21:10:19.460Z,58.40
2018-02-13T21:12:47.469Z,58.90
2018-02-13T21:15:14.776Z,58.80
2018-02-13T21:20:41.604Z,58.40
2018-02-13T21:23:09.052Z,58.20
2018-02-13T21:25:37.105Z,58.40
2018-02-13T21:28:12.018Z,58.70
2018-02-13T21:30:39.427Z,58.70
2018-02-13T21:33:27.971Z,58.30
2018-02-13T21:35:56.674Z,58.30
